createdAt,value
2016-07-09T00:00:41.186Z,24.83
2016-07-09T00:01:39.724Z,24.81
2016-07-09T00:02:41.027Z,24.9
2016-07-09T00:03:40.370Z,24.87
2016-07-09T00:04:42.062Z,24.83
2016-07-09T00:05:40.455Z,24.9
2016-07-09T00:06:42.091Z,24.81
2016-07-09T00:07:41.125Z,24.83
2016-07-09T00:08:41.072Z,24.81
2016-07-09T00:09:40.501Z,24.88
2016-07-09T00:10:41.130Z,24.88
2016-07-09T00:11:42.149Z,24.85
2016-07-09T00:12:41.127Z,24.85
2016-07-09T00:13:40.538Z,24.85
2016-07-09T00:14:40.459Z,24.85
2016-07-09T00:15:41.122Z,24.85
2016-07-09T00:16:41.051Z,24.8
2016-07-09T00:17:41.131Z,24.84
2016-07-09T00:18:40.490Z,24.87
2016-07-09T00:19:41.065Z,24.83
2016-07-09T00:20:41.160Z,24.83
2016-07-09T00:21:40.004Z,24.83
2016-07-09T00:22:41.313Z,24.81
2016-07-09T00:23:40.559Z,24.9
2016-07-09T00:24:40.494Z,24.84
2016-07-09T00:25:41.194Z,24.88
2016-07-09T00:26:41.253Z,24.81
2016-07-09T00:27:41.170Z,24.83
2016-07-09T00:28:39.916Z,24.83
2016-07-09T00:29:40.010Z,24.9
2016-07-09T00:30:40.632Z,24.81
2016-07-09T00:31:40.561Z,24.78
2016-07-09T00:32:40.639Z,24.81
2016-07-09T00:33:41.213Z,24.83
2016-07-09T00:34:40.578Z,24.87
2016-07-09T00:35:41.270Z,24.8
2016-07-09T00:36:41.416Z,24.81
2016-07-09T00:37:40.773Z,24.84
2016-07-09T00:38:40.068Z,24.83
2016-07-09T00:39:40.675Z,24.83
2016-07-09T00:40:41.278Z,24.84
2016-07-09T00:41:40.619Z,24.78
2016-07-09T00:42:40.667Z,24.83
2016-07-09T00:43:41.897Z,24.77
2016-07-09T00:44:41.213Z,24.8
2016-07-09T00:45:41.381Z,24.73
2016-07-09T00:46:40.779Z,24.73
2016-07-09T00:47:41.359Z,24.76
2016-07-09T00:48:42.745Z,24.69
2016-07-09T00:49:40.747Z,24.68
2016-07-09T00:50:41.331Z,24.69
2016-07-09T00:51:40.676Z,24.69
2016-07-09T00:52:41.288Z,24.78
2016-07-09T00:53:41.316Z,24.77
2016-07-09T00:54:40.124Z,24.69
2016-07-09T00:55:40.706Z,24.65
2016-07-09T00:56:40.758Z,24.69
2016-07-09T00:57:40.770Z,24.69
2016-07-09T00:58:41.631Z,24.71
2016-07-09T00:59:40.708Z,24.67
2016-07-09T01:00:40.155Z,24.65
2016-07-09T01:01:40.831Z,24.67
2016-07-09T01:02:41.421Z,24.71
2016-07-09T01:03:40.090Z,24.57
2016-07-09T01:04:41.446Z,24.5
2016-07-09T01:05:41.503Z,24.53
2016-07-09T01:06:41.432Z,24.55
2016-07-09T01:07:41.430Z,24.64
2016-07-09T01:08:41.549Z,24.64
2016-07-09T01:09:40.898Z,24.8
2016-07-09T01:10:40.796Z,24.71
2016-07-09T01:11:41.221Z,24.71
2016-07-09T01:12:41.549Z,24.78
2016-07-09T01:13:40.281Z,24.78
2016-07-09T01:14:40.772Z,24.85
2016-07-09T01:15:41.510Z,24.76
2016-07-09T01:16:41.822Z,24.88
2016-07-09T01:17:40.942Z,24.8
2016-07-09T01:18:40.906Z,24.58
2016-07-09T01:19:41.564Z,24.61
2016-07-09T01:20:40.896Z,24.71
2016-07-09T01:21:40.777Z,24.73
2016-07-09T01:22:41.617Z,24.73
2016-07-09T01:23:40.893Z,24.78
2016-07-09T01:24:41.614Z,24.77
2016-07-09T01:25:41.615Z,24.8
2016-07-09T01:26:41.557Z,24.8
2016-07-09T01:27:41.538Z,24.73
2016-07-09T01:28:40.958Z,24.73
2016-07-09T01:29:41.908Z,24.69
2016-07-09T01:30:40.913Z,24.73
2016-07-09T01:31:41.000Z,24.8
2016-07-09T01:32:40.992Z,24.81
2016-07-09T01:33:40.937Z,24.87
2016-07-09T01:34:41.706Z,24.8
2016-07-09T01:35:40.958Z,24.81
2016-07-09T01:36:41.627Z,24.73
2016-07-09T01:37:41.632Z,24.62
2016-07-09T01:38:41.042Z,24.68
2016-07-09T01:39:41.652Z,24.68
2016-07-09T01:40:41.664Z,24.8
2016-07-09T01:41:41.640Z,24.73
2016-07-09T01:42:41.109Z,24.73
2016-07-09T01:43:41.615Z,24.76
2016-07-09T01:44:42.490Z,24.8
2016-07-09T01:45:41.711Z,24.78
2016-07-09T01:46:40.987Z,24.71
2016-07-09T01:47:42.448Z,24.73
2016-07-09T01:48:40.987Z,24.76
2016-07-09T01:49:41.774Z,24.71
2016-07-09T01:50:41.733Z,24.76
2016-07-09T01:51:41.727Z,24.78
2016-07-09T01:52:41.927Z,24.71
2016-07-09T01:53:41.742Z,24.68
2016-07-09T01:54:41.008Z,24.62
2016-07-09T01:55:42.027Z,24.71
2016-07-09T01:56:41.056Z,24.78
2016-07-09T01:57:41.789Z,24.76
2016-07-09T01:58:40.499Z,24.77
2016-07-09T01:59:41.195Z,24.73
2016-07-09T02:00:41.739Z,24.67
2016-07-09T02:01:41.840Z,24.81
2016-07-09T02:02:41.201Z,24.71
2016-07-09T02:03:41.996Z,24.71
2016-07-09T02:04:41.924Z,24.77
2016-07-09T02:05:41.156Z,24.81
2016-07-09T02:06:40.508Z,24.8
2016-07-09T02:07:41.861Z,24.78
2016-07-09T02:08:41.691Z,24.78
2016-07-09T02:09:41.960Z,24.69
2016-07-09T02:10:41.799Z,24.71
2016-07-09T02:11:40.638Z,24.69
2016-07-09T02:12:41.166Z,24.83
2016-07-09T02:13:41.872Z,24.78
2016-07-09T02:14:41.818Z,24.73
2016-07-09T02:15:41.800Z,24.78
2016-07-09T02:16:42.916Z,24.77
2016-07-09T02:17:40.612Z,24.81
2016-07-09T02:18:41.824Z,24.69
2016-07-09T02:19:41.365Z,24.71
2016-07-09T02:20:40.694Z,24.76
2016-07-09T02:21:41.808Z,24.68
2016-07-09T02:22:41.866Z,24.67
2016-07-09T02:23:41.904Z,24.67
2016-07-09T02:24:41.234Z,24.73
2016-07-09T02:25:41.912Z,24.8
2016-07-09T02:26:41.294Z,24.71
2016-07-09T02:27:41.303Z,24.77
2016-07-09T02:28:41.838Z,24.73
2016-07-09T02:29:42.034Z,24.77
2016-07-09T02:30:42.068Z,24.73
2016-07-09T02:31:42.045Z,24.76
2016-07-09T02:32:42.046Z,24.77
2016-07-09T02:33:41.470Z,24.62
2016-07-09T02:34:41.975Z,24.64
2016-07-09T02:35:43.058Z,24.69
2016-07-09T02:36:41.997Z,24.69
2016-07-09T02:37:42.087Z,24.71
2016-07-09T02:38:41.117Z,24.73
2016-07-09T02:39:41.410Z,24.77
2016-07-09T02:40:42.495Z,24.69
2016-07-09T02:41:41.302Z,24.71
2016-07-09T02:42:40.856Z,24.73
2016-07-09T02:43:41.437Z,24.73
2016-07-09T02:44:42.155Z,24.69
2016-07-09T02:45:42.149Z,24.71
2016-07-09T02:46:41.467Z,24.73
2016-07-09T02:47:42.057Z,24.77
2016-07-09T02:48:42.052Z,24.8
2016-07-09T02:49:42.215Z,24.71
2016-07-09T02:50:42.499Z,24.78
2016-07-09T02:51:41.549Z,24.81
2016-07-09T02:52:42.112Z,24.76
2016-07-09T02:53:41.508Z,24.77
2016-07-09T02:54:41.396Z,24.76
2016-07-09T02:55:42.128Z,24.69
2016-07-09T02:56:41.426Z,24.73
2016-07-09T02:57:41.342Z,24.78
2016-07-09T02:58:41.498Z,24.73
2016-07-09T02:59:42.089Z,24.78
2016-07-09T03:00:41.504Z,24.71
2016-07-09T03:01:41.608Z,24.68
2016-07-09T03:02:42.200Z,24.77
2016-07-09T03:03:42.782Z,24.68
2016-07-09T03:04:41.661Z,24.71
2016-07-09T03:05:41.629Z,24.69
2016-07-09T03:06:41.571Z,24.65
2016-07-09T03:07:42.257Z,24.77
2016-07-09T03:08:42.186Z,24.64
2016-07-09T03:09:41.502Z,24.67
2016-07-09T03:10:41.616Z,24.71
2016-07-09T03:11:40.932Z,24.69
2016-07-09T03:12:42.278Z,24.71
2016-07-09T03:13:42.252Z,24.73
2016-07-09T03:14:41.687Z,24.65
2016-07-09T03:15:42.222Z,24.83
2016-07-09T03:16:40.976Z,24.65
2016-07-09T03:17:41.598Z,24.62
2016-07-09T03:18:41.652Z,24.68
2016-07-09T03:19:42.401Z,24.65
2016-07-09T03:20:40.934Z,24.76
2016-07-09T03:21:41.549Z,24.71
2016-07-09T03:22:41.705Z,24.68
2016-07-09T03:23:42.281Z,24.71
2016-07-09T03:24:42.276Z,24.71
2016-07-09T03:25:41.680Z,24.71
2016-07-09T03:26:42.378Z,24.69
2016-07-09T03:27:42.202Z,24.67
2016-07-09T03:28:42.247Z,24.76
2016-07-09T03:29:41.747Z,24.68
2016-07-09T03:30:41.746Z,24.69
2016-07-09T03:31:41.664Z,24.64
2016-07-09T03:32:41.816Z,24.68
2016-07-09T03:33:41.775Z,24.64
2016-07-09T03:34:42.246Z,24.67
2016-07-09T03:35:41.768Z,24.68
2016-07-09T03:36:43.536Z,24.78
2016-07-09T03:37:42.305Z,24.68
2016-07-09T03:38:41.779Z,24.61
2016-07-09T03:39:42.896Z,24.65
2016-07-09T03:40:42.504Z,24.65
2016-07-09T03:41:41.796Z,24.53
2016-07-09T03:42:42.294Z,24.68
2016-07-09T03:43:41.127Z,24.68
2016-07-09T03:44:42.430Z,24.77
2016-07-09T03:45:41.845Z,24.68
2016-07-09T03:46:42.269Z,24.69
2016-07-09T03:47:42.550Z,24.68
2016-07-09T03:48:41.867Z,24.68
2016-07-09T03:49:42.505Z,24.68
2016-07-09T03:50:41.757Z,24.67
2016-07-09T03:51:42.422Z,24.64
2016-07-09T03:52:42.410Z,24.68
2016-07-09T03:53:42.511Z,24.62
2016-07-09T03:54:41.145Z,24.68
2016-07-09T03:55:41.779Z,24.62
2016-07-09T03:56:41.780Z,24.67
2016-07-09T03:57:41.808Z,24.68
2016-07-09T03:58:41.192Z,24.67
2016-07-09T03:59:41.863Z,24.64
2016-07-09T04:00:42.437Z,24.67
2016-07-09T04:01:41.797Z,24.68
2016-07-09T04:02:42.497Z,24.65
2016-07-09T04:03:42.684Z,24.68
2016-07-09T04:04:42.518Z,24.64
2016-07-09T04:05:41.879Z,24.62
2016-07-09T04:06:42.997Z,24.62
2016-07-09T04:07:42.520Z,24.58
2016-07-09T04:08:42.050Z,24.6
2016-07-09T04:09:41.880Z,24.55
2016-07-09T04:10:41.852Z,24.62
2016-07-09T04:11:41.297Z,24.61
2016-07-09T04:12:41.988Z,24.62
2016-07-09T04:13:41.994Z,24.61
2016-07-09T04:14:42.025Z,24.68
2016-07-09T04:15:42.582Z,24.64
2016-07-09T04:16:42.039Z,24.64
2016-07-09T04:17:42.976Z,24.76
2016-07-09T04:18:41.905Z,24.68
2016-07-09T04:19:42.653Z,24.68
2016-07-09T04:20:42.006Z,24.62
2016-07-09T04:21:41.996Z,24.73
2016-07-09T04:22:41.320Z,24.71
2016-07-09T04:23:42.549Z,24.69
2016-07-09T04:24:41.330Z,24.65
2016-07-09T04:25:42.561Z,24.62
2016-07-09T04:26:41.993Z,24.73
2016-07-09T04:27:42.747Z,24.71
2016-07-09T04:28:42.080Z,24.67
2016-07-09T04:29:42.711Z,24.68
2016-07-09T04:30:42.613Z,24.68
2016-07-09T04:31:42.036Z,24.69
2016-07-09T04:32:42.774Z,24.69
2016-07-09T04:33:42.749Z,24.6
2016-07-09T04:34:41.391Z,24.68
2016-07-09T04:35:42.767Z,24.67
2016-07-09T04:36:41.458Z,24.61
2016-07-09T04:37:41.427Z,24.65
2016-07-09T04:38:42.639Z,24.68
2016-07-09T04:39:42.760Z,24.62
2016-07-09T04:40:42.045Z,24.64
2016-07-09T04:41:41.504Z,24.68
2016-07-09T04:42:42.906Z,24.67
2016-07-09T04:43:42.068Z,24.62
2016-07-09T04:44:42.844Z,24.67
2016-07-09T04:45:42.871Z,24.62
2016-07-09T04:46:42.895Z,24.68
2016-07-09T04:47:42.093Z,24.62
2016-07-09T04:48:42.851Z,24.67
2016-07-09T04:49:42.903Z,24.69
2016-07-09T04:50:42.730Z,24.68
2016-07-09T04:51:42.984Z,24.67
2016-07-09T04:52:42.845Z,24.67
2016-07-09T04:53:42.126Z,24.62
2016-07-09T04:54:41.518Z,24.6
2016-07-09T04:55:42.852Z,24.68
2016-07-09T04:56:42.138Z,24.69
2016-07-09T04:57:42.764Z,24.64
2016-07-09T04:58:42.208Z,24.68
2016-07-09T04:59:42.811Z,24.64
2016-07-09T05:00:42.923Z,24.69
2016-07-09T05:01:41.589Z,24.64
2016-07-09T05:02:42.330Z,24.62
2016-07-09T05:03:42.328Z,24.6
2016-07-09T05:04:42.951Z,24.67
2016-07-09T05:05:42.199Z,24.64
2016-07-09T05:06:42.923Z,24.68
2016-07-09T05:07:42.276Z,24.68
2016-07-09T05:08:42.987Z,24.62
2016-07-09T05:09:43.017Z,24.64
2016-07-09T05:10:42.866Z,24.67
2016-07-09T05:11:42.851Z,24.71
2016-07-09T05:12:43.069Z,24.62
2016-07-09T05:13:42.255Z,24.65
2016-07-09T05:14:42.275Z,24.69
2016-07-09T05:15:44.075Z,24.67
2016-07-09T05:16:42.358Z,24.69
2016-07-09T05:17:43.095Z,24.62
2016-07-09T05:18:43.058Z,24.62
2016-07-09T05:19:42.934Z,24.62
2016-07-09T05:20:42.478Z,24.61
2016-07-09T05:21:43.069Z,24.64
2016-07-09T05:22:42.919Z,24.65
2016-07-09T05:23:42.434Z,24.67
2016-07-09T05:24:42.387Z,24.64
2016-07-09T05:25:42.444Z,24.6
2016-07-09T05:26:42.329Z,24.65
2016-07-09T05:27:42.479Z,24.69
2016-07-09T05:28:42.347Z,24.64
2016-07-09T05:29:42.351Z,24.62
2016-07-09T05:30:42.540Z,24.64
2016-07-09T05:31:41.795Z,24.62
2016-07-09T05:32:42.420Z,24.64
2016-07-09T05:33:42.410Z,24.64
2016-07-09T05:34:41.866Z,24.6
2016-07-09T05:35:42.506Z,24.58
2016-07-09T05:36:42.458Z,24.64
2016-07-09T05:37:41.806Z,24.65
2016-07-09T05:38:42.408Z,24.52
2016-07-09T05:39:42.653Z,24.65
2016-07-09T05:40:43.215Z,24.67
2016-07-09T05:41:43.060Z,24.62
2016-07-09T05:42:42.499Z,24.62
2016-07-09T05:43:41.926Z,24.55
2016-07-09T05:44:41.832Z,24.57
2016-07-09T05:45:43.091Z,24.55
2016-07-09T05:46:42.509Z,24.62
2016-07-09T05:47:42.603Z,24.6
2016-07-09T05:48:42.543Z,24.62
2016-07-09T05:49:43.223Z,24.65
2016-07-09T05:50:42.653Z,24.67
2016-07-09T05:51:43.147Z,24.64
2016-07-09T05:52:44.212Z,24.67
2016-07-09T05:53:42.653Z,24.71
2016-07-09T05:54:42.589Z,24.64
2016-07-09T05:55:43.233Z,24.62
2016-07-09T05:56:43.191Z,24.69
2016-07-09T05:57:42.656Z,24.68
2016-07-09T05:58:43.152Z,24.69
2016-07-09T05:59:43.148Z,24.68
2016-07-09T06:00:42.540Z,24.65
2016-07-09T06:01:41.979Z,24.68
2016-07-09T06:02:43.293Z,24.71
2016-07-09T06:03:42.567Z,24.78
2016-07-09T06:04:43.184Z,24.68
2016-07-09T06:05:42.612Z,24.78
2016-07-09T06:06:42.691Z,24.67
2016-07-09T06:07:42.708Z,24.78
2016-07-09T06:08:43.255Z,24.77
2016-07-09T06:09:42.820Z,24.77
2016-07-09T06:10:42.656Z,24.77
2016-07-09T06:11:43.353Z,24.69
2016-07-09T06:12:42.721Z,24.61
2016-07-09T06:13:43.324Z,24.71
2016-07-09T06:14:42.641Z,24.68
2016-07-09T06:15:42.641Z,24.68
2016-07-09T06:16:42.042Z,24.73
2016-07-09T06:17:43.281Z,24.77
2016-07-09T06:18:43.371Z,24.71
2016-07-09T06:19:42.682Z,24.69
2016-07-09T06:20:42.723Z,24.87
2016-07-09T06:21:42.835Z,24.87
2016-07-09T06:22:42.119Z,24.84
2016-07-09T06:23:43.313Z,24.87
2016-07-09T06:24:42.698Z,24.88
2016-07-09T06:25:43.322Z,24.85
2016-07-09T06:26:42.760Z,24.83
2016-07-09T06:27:43.329Z,24.85
2016-07-09T06:28:43.385Z,24.81
2016-07-09T06:29:43.345Z,24.85
2016-07-09T06:30:42.782Z,24.83
2016-07-09T06:31:42.749Z,24.85
2016-07-09T06:32:42.276Z,24.87
2016-07-09T06:33:43.439Z,24.87
2016-07-09T06:34:43.480Z,24.84
2016-07-09T06:35:42.936Z,24.87
2016-07-09T06:36:42.878Z,24.88
2016-07-09T06:37:42.786Z,24.85
2016-07-09T06:38:42.842Z,24.81
2016-07-09T06:39:42.858Z,24.83
2016-07-09T06:40:43.418Z,24.8
2016-07-09T06:41:42.832Z,24.91
2016-07-09T06:42:42.206Z,24.68
2016-07-09T06:43:42.853Z,24.77
2016-07-09T06:44:43.484Z,24.87
2016-07-09T06:45:43.486Z,24.78
2016-07-09T06:46:43.546Z,24.69
2016-07-09T06:47:42.849Z,24.78
2016-07-09T06:48:43.468Z,24.71
2016-07-09T06:49:42.862Z,24.87
2016-07-09T06:50:42.876Z,24.8
2016-07-09T06:51:43.590Z,24.83
2016-07-09T06:52:42.923Z,24.87
2016-07-09T06:53:42.279Z,24.85
2016-07-09T06:54:42.893Z,24.85
2016-07-09T06:55:42.289Z,24.84
2016-07-09T06:56:43.641Z,24.83
2016-07-09T06:57:43.679Z,24.91
2016-07-09T06:58:43.002Z,24.83
2016-07-09T06:59:42.926Z,24.83
2016-07-09T07:00:42.938Z,24.83
2016-07-09T07:01:42.942Z,24.9
2016-07-09T07:02:43.562Z,24.85
2016-07-09T07:03:42.370Z,24.83
2016-07-09T07:04:43.676Z,24.81
2016-07-09T07:05:43.081Z,24.81
2016-07-09T07:06:42.370Z,24.81
2016-07-09T07:07:43.593Z,24.85
2016-07-09T07:08:42.372Z,24.84
2016-07-09T07:09:42.390Z,24.9
2016-07-09T07:10:42.392Z,24.88
2016-07-09T07:11:42.392Z,24.9
2016-07-09T07:12:43.696Z,24.83
2016-07-09T07:13:43.669Z,24.77
2016-07-09T07:14:43.024Z,24.81
2016-07-09T07:15:43.674Z,24.83
2016-07-09T07:16:43.654Z,24.9
2016-07-09T07:17:43.747Z,24.81
2016-07-09T07:18:43.147Z,24.83
2016-07-09T07:19:43.059Z,24.88
2016-07-09T07:20:43.095Z,24.87
2016-07-09T07:21:43.724Z,24.91
2016-07-09T07:22:42.464Z,24.88
2016-07-09T07:23:43.764Z,24.85
2016-07-09T07:24:43.091Z,24.83
2016-07-09T07:25:42.488Z,24.83
2016-07-09T07:26:42.491Z,24.9
2016-07-09T07:27:43.743Z,24.91
2016-07-09T07:28:43.748Z,24.95
2016-07-09T07:29:43.816Z,25.03
2016-07-09T07:30:42.625Z,25.08
2016-07-09T07:31:43.868Z,25.14
2016-07-09T07:32:43.784Z,25.06
2016-07-09T07:33:43.149Z,25.08
2016-07-09T07:34:43.778Z,25.06
2016-07-09T07:35:42.553Z,25.14
2016-07-09T07:36:43.174Z,25.28
2016-07-09T07:37:43.185Z,25.27
2016-07-09T07:38:43.917Z,25.27
2016-07-09T07:39:42.602Z,25.24
2016-07-09T07:40:43.236Z,25.36
2016-07-09T07:41:43.209Z,25.46
2016-07-09T07:42:43.886Z,25.46
2016-07-09T07:43:43.250Z,25.45
2016-07-09T07:44:43.246Z,25.47
2016-07-09T07:45:43.241Z,25.43
2016-07-09T07:46:43.245Z,25.4
2016-07-09T07:47:43.256Z,25.47
2016-07-09T07:48:43.264Z,25.42
2016-07-09T07:49:42.696Z,25.38
2016-07-09T07:50:44.011Z,25.33
2016-07-09T07:51:44.012Z,25.24
2016-07-09T07:52:44.014Z,25.25
2016-07-09T07:53:42.685Z,25.18
2016-07-09T07:54:43.308Z,25.21
2016-07-09T07:55:43.927Z,25.14
2016-07-09T07:56:43.934Z,25.23
2016-07-09T07:57:43.335Z,25.35
2016-07-09T07:58:43.947Z,25.47
2016-07-09T07:59:43.958Z,25.54
2016-07-09T08:00:43.354Z,25.58
2016-07-09T08:01:43.970Z,25.69
2016-07-09T08:02:43.979Z,25.67
2016-07-09T08:03:42.763Z,25.7
2016-07-09T08:04:43.993Z,25.72
2016-07-09T08:05:44.004Z,25.64
2016-07-09T08:06:44.010Z,25.6
2016-07-09T08:07:42.794Z,25.6
2016-07-09T08:08:44.027Z,25.55
2016-07-09T08:09:42.805Z,25.55
2016-07-09T08:10:43.535Z,25.52
2016-07-09T08:11:43.431Z,25.46
2016-07-09T08:12:43.440Z,25.39
2016-07-09T08:13:43.453Z,25.39
2016-07-09T08:14:43.456Z,25.36
2016-07-09T08:15:43.464Z,25.43
2016-07-09T08:16:43.473Z,25.36
2016-07-09T08:17:42.869Z,25.54
2016-07-09T08:18:43.486Z,25.39
2016-07-09T08:19:42.879Z,25.4
2016-07-09T08:20:44.112Z,25.38
2016-07-09T08:21:44.122Z,25.38
2016-07-09T08:22:44.128Z,25.39
2016-07-09T08:23:43.520Z,25.36
2016-07-09T08:24:43.530Z,25.33
2016-07-09T08:25:44.152Z,25.3
2016-07-09T08:26:42.932Z,25.1
2016-07-09T08:27:43.551Z,25.27
2016-07-09T08:28:44.172Z,25.23
2016-07-09T08:29:44.175Z,25.23
2016-07-09T08:30:44.218Z,25.23
2016-07-09T08:31:42.964Z,25.28
2016-07-09T08:32:44.199Z,25.23
2016-07-09T08:33:44.203Z,25.25
2016-07-09T08:34:43.598Z,25.23
2016-07-09T08:35:44.218Z,25.25
2016-07-09T08:36:42.999Z,25.33
2016-07-09T08:37:43.618Z,25.43
2016-07-09T08:38:44.250Z,25.3
2016-07-09T08:39:44.250Z,25.3
2016-07-09T08:40:43.643Z,25.36
2016-07-09T08:41:43.647Z,25.33
2016-07-09T08:42:44.266Z,25.23
2016-07-09T08:43:43.050Z,25.38
2016-07-09T08:44:43.670Z,25.25
2016-07-09T08:45:44.290Z,25.23
2016-07-09T08:46:43.072Z,25.23
2016-07-09T08:47:43.690Z,25.27
2016-07-09T08:48:43.088Z,25.23
2016-07-09T08:50:44.149Z,25.21
2016-07-09T08:51:44.331Z,25.23
2016-07-09T08:52:44.385Z,25.33
2016-07-09T08:53:44.360Z,25.23
2016-07-09T08:54:43.735Z,25.21
2016-07-09T08:55:44.405Z,25.21
2016-07-09T08:56:43.142Z,25.23
2016-07-09T08:57:44.369Z,25.18
2016-07-09T08:58:43.767Z,25.25
2016-07-09T08:59:43.780Z,25.24
2016-07-09T09:00:43.781Z,25.13
2016-07-09T09:01:43.791Z,25.17
2016-07-09T09:02:43.797Z,25.13
2016-07-09T09:03:43.799Z,25.2
2016-07-09T09:04:44.423Z,25.25
2016-07-09T09:05:44.426Z,25.24
2016-07-09T09:06:43.210Z,25.28
2016-07-09T09:07:43.826Z,25.23
2016-07-09T09:08:44.448Z,25.25
2016-07-09T09:09:43.840Z,25.3
2016-07-09T09:10:43.858Z,25.24
2016-07-09T09:11:43.860Z,25.2
2016-07-09T09:12:43.862Z,25.23
2016-07-09T09:13:44.487Z,25.23
2016-07-09T09:14:44.916Z,25.24
2016-07-09T09:15:43.270Z,25.25
2016-07-09T09:16:43.888Z,25.33
2016-07-09T09:17:44.511Z,25.23
2016-07-09T09:18:43.905Z,25.2
2016-07-09T09:19:43.300Z,25.28
2016-07-09T09:20:43.918Z,25.21
2016-07-09T09:21:43.924Z,25.23
2016-07-09T09:22:44.549Z,25.25
2016-07-09T09:23:44.715Z,25.2
2016-07-09T09:24:43.942Z,25.28
2016-07-09T09:25:44.354Z,25.23
2016-07-09T09:26:44.574Z,25.21
2016-07-09T09:27:44.581Z,25.17
2016-07-09T09:28:44.592Z,25.13
2016-07-09T09:29:43.995Z,25.1
2016-07-09T09:30:43.378Z,25.25
2016-07-09T09:31:43.994Z,25.28
2016-07-09T09:32:44.613Z,25.24
2016-07-09T09:33:44.622Z,25.3
2016-07-09T09:34:45.027Z,25.25
2016-07-09T09:35:44.019Z,25.25
2016-07-09T09:36:44.028Z,25.14
2016-07-09T09:37:43.423Z,25.14
2016-07-09T09:38:44.042Z,25.1
2016-07-09T09:39:44.048Z,25.2
2016-07-09T09:40:44.681Z,25.24
2016-07-09T09:41:44.068Z,25.27
2016-07-09T09:42:44.070Z,25.25
2016-07-09T09:43:43.463Z,25.25
2016-07-09T09:44:44.084Z,25.24
2016-07-09T09:45:44.701Z,25.23
2016-07-09T09:46:43.484Z,25.35
2016-07-09T09:47:44.107Z,25.24
2016-07-09T09:48:44.113Z,25.3
2016-07-09T09:49:45.433Z,25.35
2016-07-09T09:50:44.134Z,25.36
2016-07-09T09:51:44.745Z,25.24
2016-07-09T09:52:44.141Z,25.27
2016-07-09T09:53:44.145Z,25.38
2016-07-09T09:54:44.212Z,25.2
2016-07-09T09:55:44.212Z,25.25
2016-07-09T09:56:45.182Z,25.13
2016-07-09T09:57:44.177Z,25.28
2016-07-09T09:58:44.179Z,25.25
2016-07-09T09:59:44.188Z,25.23
2016-07-09T10:00:44.208Z,25.3
2016-07-09T10:01:44.813Z,25.27
2016-07-09T10:02:43.597Z,25.28
2016-07-09T10:03:44.218Z,25.23
2016-07-09T10:04:44.834Z,25.2
2016-07-09T10:05:44.233Z,25.36
2016-07-09T10:06:44.241Z,25.21
2016-07-09T10:07:44.855Z,25.25
2016-07-09T10:08:44.865Z,25.24
2016-07-09T10:09:45.724Z,25.35
2016-07-09T10:10:43.652Z,25.3
2016-07-09T10:11:45.322Z,25.27
2016-07-09T10:12:43.668Z,25.21
2016-07-09T10:13:43.678Z,25.32
2016-07-09T10:14:44.296Z,25.23
2016-07-09T10:15:44.315Z,25.4
2016-07-09T10:16:43.694Z,25.33
2016-07-09T10:17:44.314Z,25.38
2016-07-09T10:18:44.931Z,25.38
2016-07-09T10:19:44.331Z,25.28
2016-07-09T10:20:43.722Z,25.32
2016-07-09T10:21:44.341Z,25.27
2016-07-09T10:22:44.914Z,25.42
2016-07-09T10:23:44.972Z,25.36
2016-07-09T10:24:44.975Z,25.43
2016-07-09T10:25:44.372Z,25.4
2016-07-09T10:26:44.378Z,25.38
2016-07-09T10:27:44.385Z,25.39
2016-07-09T10:28:44.393Z,25.35
2016-07-09T10:29:45.188Z,25.43
2016-07-09T10:30:44.408Z,25.36
2016-07-09T10:31:44.814Z,25.42
2016-07-09T10:32:44.420Z,25.4
2016-07-09T10:33:44.368Z,25.38
2016-07-09T10:34:44.439Z,25.33
2016-07-09T10:35:44.442Z,25.4
2016-07-09T10:36:44.453Z,25.4
2016-07-09T10:37:45.070Z,25.39
2016-07-09T10:38:44.466Z,25.38
2016-07-09T10:39:43.868Z,25.36
2016-07-09T10:40:46.042Z,25.33
2016-07-09T10:41:45.101Z,25.38
2016-07-09T10:42:44.434Z,25.36
2016-07-09T10:43:44.497Z,25.4
2016-07-09T10:44:46.025Z,25.36
2016-07-09T10:45:44.511Z,25.3
2016-07-09T10:46:45.133Z,25.39
2016-07-09T10:47:44.531Z,25.42
2016-07-09T10:48:44.535Z,25.38
2016-07-09T10:49:44.542Z,25.39
2016-07-09T10:50:45.165Z,25.38
2016-07-09T10:51:45.819Z,25.38
2016-07-09T10:52:44.615Z,25.4
2016-07-09T10:53:44.723Z,25.42
2016-07-09T10:54:44.579Z,25.36
2016-07-09T10:55:44.025Z,25.3
2016-07-09T10:56:44.591Z,25.35
2016-07-09T10:57:45.212Z,25.42
2016-07-09T10:58:44.607Z,25.4
2016-07-09T10:59:44.628Z,25.36
2016-07-09T11:00:45.231Z,25.39
2016-07-09T11:01:45.240Z,25.4
2016-07-09T11:02:45.247Z,25.33
2016-07-09T11:03:44.642Z,25.38
2016-07-09T11:04:44.651Z,25.32
2016-07-09T11:05:44.655Z,25.32
2016-07-09T11:06:45.925Z,25.35
2016-07-09T11:07:44.671Z,25.33
2016-07-09T11:08:44.676Z,25.35
2016-07-09T11:09:45.294Z,25.38
2016-07-09T11:10:44.698Z,25.45
2016-07-09T11:11:45.308Z,25.38
2016-07-09T11:12:45.318Z,25.4
2016-07-09T11:13:45.326Z,25.36
2016-07-09T11:14:44.110Z,25.33
2016-07-09T11:15:46.130Z,25.4
2016-07-09T11:16:44.736Z,25.36
2016-07-09T11:17:45.502Z,25.42
2016-07-09T11:18:44.749Z,25.32
2016-07-09T11:19:44.757Z,25.27
2016-07-09T11:20:44.762Z,25.42
2016-07-09T11:21:45.384Z,25.3
2016-07-09T11:22:44.774Z,25.36
2016-07-09T11:23:44.784Z,25.38
2016-07-09T11:24:44.790Z,25.38
2016-07-09T11:25:44.798Z,25.36
2016-07-09T11:26:46.067Z,25.36
2016-07-09T11:27:45.424Z,25.38
2016-07-09T11:28:44.818Z,25.35
2016-07-09T11:29:45.454Z,25.43
2016-07-09T11:30:45.447Z,25.38
2016-07-09T11:31:45.450Z,25.35
2016-07-09T11:32:45.465Z,25.4
2016-07-09T11:33:44.854Z,25.39
2016-07-09T11:34:44.246Z,25.3
2016-07-09T11:35:44.870Z,25.38
2016-07-09T11:36:44.877Z,25.35
2016-07-09T11:37:45.381Z,25.39
2016-07-09T11:38:45.506Z,25.36
2016-07-09T11:39:44.897Z,25.38
2016-07-09T11:40:44.910Z,25.32
2016-07-09T11:41:44.910Z,25.32
2016-07-09T11:42:44.921Z,25.4
2016-07-09T11:43:45.536Z,25.4
2016-07-09T11:44:44.933Z,25.4
2016-07-09T11:45:44.947Z,25.39
2016-07-09T11:46:44.943Z,25.39
2016-07-09T11:47:44.339Z,25.46
2016-07-09T11:48:45.111Z,25.36
2016-07-09T11:49:44.966Z,25.4
2016-07-09T11:50:44.974Z,25.4
2016-07-09T11:51:44.982Z,25.36
2016-07-09T11:52:45.602Z,25.3
2016-07-09T11:53:44.996Z,25.32
2016-07-09T11:54:45.002Z,25.27
2016-07-09T11:55:45.008Z,25.36
2016-07-09T11:56:45.018Z,25.32
2016-07-09T11:57:45.637Z,25.3
2016-07-09T11:58:45.641Z,25.23
2016-07-09T11:59:45.696Z,25.25
2016-07-09T12:00:44.434Z,25.25
2016-07-09T12:01:46.928Z,25.21
2016-07-09T12:02:45.669Z,25.32
2016-07-09T12:03:45.679Z,25.3
2016-07-09T12:04:45.073Z,25.23
2016-07-09T12:05:45.077Z,25.23
2016-07-09T12:06:45.085Z,25.27
2016-07-09T12:07:45.091Z,25.28
2016-07-09T12:08:45.716Z,25.25
2016-07-09T12:09:45.719Z,25.23
2016-07-09T12:10:45.122Z,25.25
2016-07-09T12:11:45.120Z,25.24
2016-07-09T12:12:46.802Z,25.32
2016-07-09T12:13:45.744Z,25.24
2016-07-09T12:14:44.526Z,25.35
2016-07-09T12:15:45.153Z,25.35
2016-07-09T12:16:45.154Z,25.33
2016-07-09T12:17:44.551Z,25.32
2016-07-09T12:18:45.170Z,25.3
2016-07-09T12:19:44.562Z,25.4
2016-07-09T12:20:45.795Z,25.24
2016-07-09T12:21:44.679Z,25.23
2016-07-09T12:22:45.195Z,25.32
2016-07-09T12:23:46.355Z,25.23
2016-07-09T12:24:45.211Z,25.35
2016-07-09T12:25:45.218Z,25.36
2016-07-09T12:26:45.225Z,25.36
2016-07-09T12:27:45.842Z,25.38
2016-07-09T12:28:45.236Z,25.33
2016-07-09T12:29:44.634Z,25.38
2016-07-09T12:30:45.249Z,25.46
2016-07-09T12:31:45.884Z,25.4
2016-07-09T12:32:46.365Z,25.35
2016-07-09T12:33:44.662Z,25.38
2016-07-09T12:34:46.515Z,25.38
2016-07-09T12:35:44.672Z,25.42
2016-07-09T12:36:44.681Z,25.45
2016-07-09T12:37:44.689Z,25.38
2016-07-09T12:38:45.310Z,25.39
2016-07-09T12:39:44.702Z,25.33
2016-07-09T12:40:44.712Z,25.39
2016-07-09T12:41:45.327Z,25.4
2016-07-09T12:42:45.334Z,25.27
2016-07-09T12:43:46.618Z,25.39
2016-07-09T12:44:45.352Z,25.38
2016-07-09T12:45:46.018Z,25.32
2016-07-09T12:46:45.367Z,25.39
2016-07-09T12:47:44.766Z,25.39
2016-07-09T12:48:44.762Z,25.35
2016-07-09T12:49:45.385Z,25.39
2016-07-09T12:50:46.002Z,25.35
2016-07-09T12:51:46.009Z,25.42
2016-07-09T12:52:45.408Z,25.38
2016-07-09T12:53:46.027Z,25.46
2016-07-09T12:54:45.522Z,25.36
2016-07-09T12:55:45.429Z,25.36
2016-07-09T12:56:45.492Z,25.35